createdAt,value
2017-10-27T00:00:51.291Z,0
2017-10-27T00:01:51.281Z,0
2017-10-27T00:02:51.286Z,0
2017-10-27T00:03:50.922Z,0
2017-10-27T00:04:51.251Z,0
2017-10-27T00:05:51.284Z,0
2017-10-27T00:06:50.932Z,0
2017-10-27T00:07:51.234Z,0
2017-10-27T00:08:51.552Z,0
2017-10-27T00:09:51.202Z,0
2017-10-27T00:10:51.549Z,0
2017-10-27T00:11:51.217Z,0
2017-10-27T00:12:50.843Z,0
2017-10-27T00:13:51.164Z,0
2017-10-27T00:14:51.157Z,0
2017-10-27T00:15:51.155Z,0
2017-10-27T00:16:50.795Z,0
2017-10-27T00:17:51.134Z,0
2017-10-27T00:18:51.121Z,0
2017-10-27T00:19:50.776Z,0
2017-10-27T00:20:50.749Z,0
2017-10-27T00:21:51.423Z,0
2017-10-27T00:22:51.072Z,0
2017-10-27T00:23:50.729Z,0
2017-10-27T00:24:50.714Z,0
2017-10-27T00:25:51.054Z,0
2017-10-27T00:26:51.392Z,0
2017-10-27T00:27:51.363Z,0
2017-10-27T00:28:51.717Z,0
2017-10-27T00:29:50.664Z,0
2017-10-27T00:30:51.338Z,0
2017-10-27T00:31:50.982Z,0
2017-10-27T00:32:50.975Z,0
2017-10-27T00:33:50.963Z,0
2017-10-27T00:34:50.956Z,0
2017-10-27T00:35:50.606Z,0
2017-10-27T00:36:50.968Z,0
2017-10-27T00:37:50.926Z,0
2017-10-27T00:38:50.916Z,0
2017-10-27T00:39:50.910Z,0
2017-10-27T00:40:50.556Z,0
2017-10-27T00:41:50.545Z,0
2017-10-27T00:42:50.880Z,0
2017-10-27T00:43:50.868Z,0
2017-10-27T00:44:50.861Z,0
2017-10-27T00:45:50.508Z,0
2017-10-27T00:46:50.835Z,0
2017-10-27T00:47:50.826Z,0
2017-10-27T00:48:50.499Z,0
2017-10-27T00:49:50.820Z,0
2017-10-27T00:50:51.150Z,0
2017-10-27T00:51:51.490Z,0
2017-10-27T00:52:50.781Z,0
2017-10-27T00:53:51.454Z,0
2017-10-27T00:54:51.102Z,0
2017-10-27T00:55:50.410Z,0
2017-10-27T00:56:51.095Z,0
2017-10-27T00:57:50.747Z,0
2017-10-27T00:58:51.084Z,0
2017-10-27T00:59:50.370Z,0
2017-10-27T01:00:50.721Z,0
2017-10-27T01:01:50.689Z,0
2017-10-27T01:02:50.680Z,0
2017-10-27T01:03:50.685Z,0
2017-10-27T01:04:50.662Z,0
2017-10-27T01:05:50.654Z,0
2017-10-27T01:06:51.346Z,0
2017-10-27T01:07:50.638Z,0
2017-10-27T01:08:50.624Z,0
2017-10-27T01:09:50.629Z,0
2017-10-27T01:10:50.942Z,0
2017-10-27T01:11:50.596Z,0
2017-10-27T01:12:50.597Z,0
2017-10-27T01:13:50.934Z,0
2017-10-27T01:14:50.225Z,0
2017-10-27T01:15:50.570Z,0
2017-10-27T01:16:50.567Z,0
2017-10-27T01:17:50.537Z,0
2017-10-27T01:18:50.526Z,0
2017-10-27T01:19:50.558Z,0
2017-10-27T01:20:50.848Z,0
2017-10-27T01:21:50.504Z,0
2017-10-27T01:22:50.497Z,0
2017-10-27T01:23:51.194Z,0
2017-10-27T01:24:50.685Z,0
2017-10-27T01:25:50.463Z,0
2017-10-27T01:26:50.450Z,0
2017-10-27T01:27:51.149Z,0
2017-10-27T01:28:50.449Z,0
2017-10-27T01:29:50.442Z,0
2017-10-27T01:30:50.428Z,0
2017-10-27T01:31:50.402Z,0
2017-10-27T01:32:50.051Z,0
2017-10-27T01:33:50.038Z,0
2017-10-27T01:34:50.374Z,0
2017-10-27T01:35:50.387Z,0
2017-10-27T01:36:50.353Z,0
2017-10-27T01:37:50.340Z,0
2017-10-27T01:38:50.346Z,0
2017-10-27T01:39:50.330Z,0
2017-10-27T01:40:50.658Z,0
2017-10-27T01:41:49.974Z,0
2017-10-27T01:42:50.307Z,0
2017-10-27T01:43:49.962Z,0
2017-10-27T01:44:49.936Z,0
2017-10-27T01:45:50.619Z,0
2017-10-27T01:46:50.953Z,0
2017-10-27T01:47:50.245Z,0
2017-10-27T01:48:49.897Z,0
2017-10-27T01:49:50.570Z,0
2017-10-27T01:50:50.560Z,0
2017-10-27T01:51:50.212Z,0
2017-10-27T01:52:50.216Z,0
2017-10-27T01:53:50.193Z,0
2017-10-27T01:54:49.848Z,0
2017-10-27T01:55:50.850Z,0
2017-10-27T01:56:50.159Z,0
2017-10-27T01:57:50.149Z,0
2017-10-27T01:58:50.480Z,0
2017-10-27T01:59:49.808Z,0
2017-10-27T02:00:49.780Z,0
2017-10-27T02:01:50.110Z,0
2017-10-27T02:02:50.110Z,0
2017-10-27T02:03:50.111Z,0
2017-10-27T02:04:50.082Z,0
2017-10-27T02:05:49.733Z,0
2017-10-27T02:06:50.404Z,0
2017-10-27T02:07:50.054Z,0
2017-10-27T02:08:49.727Z,0
2017-10-27T02:09:50.047Z,0
2017-10-27T02:10:49.683Z,0
2017-10-27T02:11:50.044Z,0
2017-10-27T02:12:50.030Z,0
2017-10-27T02:13:49.661Z,0
2017-10-27T02:14:49.644Z,0
2017-10-27T02:15:49.636Z,0
2017-10-27T02:16:49.627Z,0
2017-10-27T02:17:49.617Z,0
2017-10-27T02:18:49.942Z,0
2017-10-27T02:19:49.594Z,0
2017-10-27T02:20:49.595Z,0
2017-10-27T02:21:50.285Z,0
2017-10-27T02:22:49.922Z,0
2017-10-27T02:23:49.561Z,0
2017-10-27T02:24:50.238Z,0
2017-10-27T02:25:49.555Z,0
2017-10-27T02:26:50.208Z,0
2017-10-27T02:27:49.509Z,0
2017-10-27T02:28:50.139Z,0
2017-10-27T02:29:49.500Z,0
2017-10-27T02:30:49.817Z,0
2017-10-27T02:31:50.172Z,0
2017-10-27T02:32:49.460Z,0
2017-10-27T02:33:49.827Z,0
2017-10-27T02:34:49.779Z,0
2017-10-27T02:35:49.444Z,0
2017-10-27T02:36:49.770Z,0
2017-10-27T02:37:50.099Z,0
2017-10-27T02:38:50.110Z,0
2017-10-27T02:39:49.760Z,0
2017-10-27T02:40:49.736Z,0
2017-10-27T02:41:50.044Z,0
2017-10-27T02:42:49.704Z,0
2017-10-27T02:43:49.350Z,0
2017-10-27T02:44:49.331Z,0
2017-10-27T02:45:49.321Z,0
2017-10-27T02:46:50.001Z,0
2017-10-27T02:47:50.322Z,0
2017-10-27T02:48:50.316Z,0
2017-10-27T02:49:50.313Z,0
2017-10-27T02:50:50.289Z,0
2017-10-27T02:51:49.596Z,0
2017-10-27T02:52:49.243Z,0
2017-10-27T02:53:49.254Z,0
2017-10-27T02:54:49.561Z,0
2017-10-27T02:55:49.583Z,0
2017-10-27T02:56:49.540Z,0
2017-10-27T02:57:49.529Z,0
2017-10-27T02:58:49.521Z,0
2017-10-27T02:59:49.521Z,0
2017-10-27T03:00:49.498Z,0
2017-10-27T03:01:49.484Z,0
2017-10-27T03:02:50.155Z,0
2017-10-27T03:03:49.461Z,0
2017-10-27T03:04:49.798Z,0
2017-10-27T03:05:49.437Z,0
2017-10-27T03:06:49.089Z,0
2017-10-27T03:07:49.111Z,0
2017-10-27T03:08:49.405Z,0
2017-10-27T03:09:49.412Z,0
2017-10-27T03:10:49.388Z,0
2017-10-27T03:11:49.749Z,0
2017-10-27T03:12:49.367Z,0
2017-10-27T03:13:49.369Z,0
2017-10-27T03:14:48.997Z,0
2017-10-27T03:15:49.004Z,0
2017-10-27T03:16:49.342Z,0
2017-10-27T03:17:48.967Z,0
2017-10-27T03:18:49.641Z,0
2017-10-27T03:19:49.296Z,0
2017-10-27T03:20:49.286Z,0
2017-10-27T03:21:49.275Z,0
2017-10-27T03:22:48.909Z,0
2017-10-27T03:23:48.906Z,0
2017-10-27T03:24:49.238Z,0
2017-10-27T03:25:48.880Z,0
2017-10-27T03:26:48.864Z,0
2017-10-27T03:27:49.211Z,0
2017-10-27T03:28:49.534Z,0
2017-10-27T03:29:48.829Z,0
2017-10-27T03:30:49.167Z,0
2017-10-27T03:31:49.159Z,0
2017-10-27T03:32:49.135Z,0
2017-10-27T03:33:48.805Z,0
2017-10-27T03:34:48.773Z,0
2017-10-27T03:35:49.109Z,0
2017-10-27T03:36:49.433Z,0
2017-10-27T03:37:49.079Z,0
2017-10-27T03:38:48.731Z,0
2017-10-27T03:39:49.417Z,0
2017-10-27T03:40:49.047Z,0
2017-10-27T03:41:48.694Z,0
2017-10-27T03:42:49.025Z,0
2017-10-27T03:43:49.692Z,0
2017-10-27T03:44:49.024Z,0
2017-10-27T03:45:49.331Z,0
2017-10-27T03:46:49.335Z,0
2017-10-27T03:47:49.315Z,0
2017-10-27T03:48:49.300Z,0
2017-10-27T03:49:48.606Z,0
2017-10-27T03:50:48.940Z,0
2017-10-27T03:51:49.261Z,0
2017-10-27T03:52:48.917Z,0
2017-10-27T03:53:48.560Z,0
2017-10-27T03:54:48.893Z,0
2017-10-27T03:55:49.222Z,0
2017-10-27T03:56:48.530Z,0
2017-10-27T03:57:48.515Z,0
2017-10-27T03:58:48.848Z,0
2017-10-27T03:59:48.495Z,0
2017-10-27T04:00:48.482Z,0
2017-10-27T04:01:48.821Z,0
2017-10-27T04:02:48.461Z,0
2017-10-27T04:03:48.812Z,0
2017-10-27T04:04:48.789Z,0
2017-10-27T04:05:49.449Z,0
2017-10-27T04:06:48.418Z,0
2017-10-27T04:07:49.424Z,0
2017-10-27T04:08:48.732Z,0
2017-10-27T04:09:48.720Z,0
2017-10-27T04:10:48.389Z,0
2017-10-27T04:11:48.699Z,0
2017-10-27T04:12:49.042Z,0
2017-10-27T04:13:49.022Z,0
2017-10-27T04:14:48.324Z,0
2017-10-27T04:15:48.313Z,0
2017-10-27T04:16:48.641Z,0
2017-10-27T04:17:48.294Z,0
2017-10-27T04:18:48.282Z,0
2017-10-27T04:19:48.608Z,0
2017-10-27T04:20:48.949Z,0
2017-10-27T04:21:48.250Z,0
2017-10-27T04:22:48.574Z,0
2017-10-27T04:23:48.247Z,0
2017-10-27T04:24:48.217Z,0
2017-10-27T04:25:48.204Z,0
2017-10-27T04:26:48.566Z,0
2017-10-27T04:27:48.528Z,0
2017-10-27T04:28:48.508Z,0
2017-10-27T04:29:48.840Z,0
2017-10-27T04:30:48.824Z,0
2017-10-27T04:31:48.499Z,0
2017-10-27T04:32:48.486Z,0
2017-10-27T04:33:48.116Z,0
2017-10-27T04:34:48.304Z,0
2017-10-27T04:35:48.776Z,0
2017-10-27T04:36:48.418Z,0
2017-10-27T04:37:48.747Z,0
2017-10-27T04:38:48.056Z,0
2017-10-27T04:39:48.051Z,0
2017-10-27T04:40:48.376Z,0
2017-10-27T04:41:48.363Z,0
2017-10-27T04:42:48.010Z,0
2017-10-27T04:43:48.707Z,0
2017-10-27T04:44:49.036Z,0
2017-10-27T04:45:47.982Z,0
2017-10-27T04:46:48.306Z,0
2017-10-27T04:47:47.966Z,0
2017-10-27T04:48:48.322Z,0
2017-10-27T04:49:47.931Z,0
2017-10-27T04:50:48.280Z,0
2017-10-27T04:51:48.247Z,0
2017-10-27T04:52:48.235Z,0
2017-10-27T04:53:48.230Z,0
2017-10-27T04:54:48.213Z,0
2017-10-27T04:55:48.540Z,0
2017-10-27T04:56:48.554Z,0
2017-10-27T04:57:48.520Z,0
2017-10-27T04:58:47.827Z,0
2017-10-27T04:59:48.513Z,0
2017-10-27T05:00:48.158Z,0
2017-10-27T05:01:48.135Z,0
2017-10-27T05:02:47.781Z,0
2017-10-27T05:03:48.465Z,0
2017-10-27T05:04:48.439Z,0
2017-10-27T05:05:48.441Z,0
2017-10-27T05:06:48.073Z,0
2017-10-27T05:07:48.065Z,0
2017-10-27T05:08:48.053Z,0
2017-10-27T05:09:48.417Z,0
2017-10-27T05:10:48.036Z,0
2017-10-27T05:11:48.020Z,0
2017-10-27T05:12:48.007Z,0
2017-10-27T05:13:48.333Z,0
2017-10-27T05:14:47.650Z,0
2017-10-27T05:15:47.636Z,0
2017-10-27T05:16:47.617Z,0
2017-10-27T05:17:47.625Z,0
2017-10-27T05:18:48.271Z,0
2017-10-27T05:19:47.603Z,0
2017-10-27T05:20:47.912Z,0
2017-10-27T05:21:48.254Z,0
2017-10-27T05:22:48.226Z,0
2017-10-27T05:23:47.879Z,0
2017-10-27T05:24:47.864Z,0
2017-10-27T05:25:47.855Z,0
2017-10-27T05:26:48.194Z,0
2017-10-27T05:27:47.842Z,0
2017-10-27T05:28:47.478Z,0
2017-10-27T05:29:48.179Z,0
2017-10-27T05:30:48.139Z,0
2017-10-27T05:31:47.444Z,0
2017-10-27T05:32:47.787Z,0
2017-10-27T05:33:47.764Z,4
2017-10-27T05:34:47.407Z,4
2017-10-27T05:35:47.737Z,4
2017-10-27T05:36:47.384Z,0
2017-10-27T05:37:47.380Z,4
2017-10-27T05:38:47.364Z,4
2017-10-27T05:39:47.351Z,4
2017-10-27T05:40:47.342Z,4
2017-10-27T05:41:47.670Z,8
2017-10-27T05:42:47.321Z,4
2017-10-27T05:43:47.641Z,8
2017-10-27T05:44:47.637Z,8
2017-10-27T05:45:47.295Z,8
2017-10-27T05:46:47.289Z,8
2017-10-27T05:47:47.613Z,12
2017-10-27T05:48:47.598Z,12
2017-10-27T05:49:47.912Z,16
2017-10-27T05:50:47.903Z,16
2017-10-27T05:51:47.891Z,16
2017-10-27T05:52:47.195Z,20
2017-10-27T05:53:47.184Z,16
2017-10-27T05:54:47.530Z,16
2017-10-27T05:55:47.508Z,12
2017-10-27T05:56:47.172Z,12
2017-10-27T05:57:48.166Z,16
2017-10-27T05:58:47.813Z,28
2017-10-27T05:59:47.474Z,40
2017-10-27T06:00:47.441Z,48
2017-10-27T06:01:47.429Z,60
2017-10-27T06:02:47.422Z,64
2017-10-27T06:03:47.447Z,80
2017-10-27T06:04:47.397Z,68
2017-10-27T06:05:48.090Z,60
2017-10-27T06:06:47.372Z,52
2017-10-27T06:07:47.021Z,44
2017-10-27T06:08:47.011Z,40
2017-10-27T06:09:47.338Z,52
2017-10-27T06:10:46.985Z,60
2017-10-27T06:11:47.312Z,68
2017-10-27T06:12:46.962Z,88
2017-10-27T06:13:47.647Z,100
2017-10-27T06:14:47.295Z,100
2017-10-27T06:15:47.282Z,104
2017-10-27T06:16:47.260Z,100
2017-10-27T06:17:47.263Z,136
2017-10-27T06:18:46.895Z,184
2017-10-27T06:19:46.885Z,196
2017-10-27T06:20:46.871Z,180
2017-10-27T06:21:47.877Z,204
2017-10-27T06:22:46.847Z,212
2017-10-27T06:23:47.379Z,228
2017-10-27T06:24:47.164Z,284
2017-10-27T06:25:47.501Z,244
2017-10-27T06:26:47.160Z,192
2017-10-27T06:27:47.466Z,236
2017-10-27T06:28:46.810Z,224
2017-10-27T06:29:46.766Z,224
2017-10-27T06:30:46.777Z,224
2017-10-27T06:31:47.094Z,260
2017-10-27T06:32:47.077Z,304
2017-10-27T06:33:47.062Z,300
2017-10-27T06:34:47.264Z,344
2017-10-27T06:35:47.722Z,472
2017-10-27T06:36:47.029Z,496
2017-10-27T06:37:46.676Z,668
2017-10-27T06:38:47.368Z,912
2017-10-27T06:39:46.653Z,1076
2017-10-27T06:40:46.992Z,892
2017-10-27T06:41:46.627Z,876
2017-10-27T06:42:46.617Z,1108
2017-10-27T06:43:47.635Z,908
2017-10-27T06:44:46.950Z,832
2017-10-27T06:45:46.593Z,792
2017-10-27T06:46:46.910Z,820
2017-10-27T06:47:46.558Z,1184
2017-10-27T06:48:47.227Z,1032
2017-10-27T06:49:46.883Z,1140
2017-10-27T06:50:47.204Z,1172
2017-10-27T06:51:46.516Z,1072
2017-10-27T06:52:46.841Z,780
2017-10-27T06:53:46.833Z,720
2017-10-27T06:54:46.820Z,532
2017-10-27T06:55:47.169Z,760
2017-10-27T06:56:46.795Z,888
2017-10-27T06:57:47.140Z,1180
2017-10-27T06:58:47.117Z,1180
2017-10-27T06:59:46.762Z,1136
2017-10-27T07:00:46.751Z,1064
2017-10-27T07:01:47.077Z,932
2017-10-27T07:02:46.736Z,1184
2017-10-27T07:03:47.076Z,1228
2017-10-27T07:04:46.708Z,1196
2017-10-27T07:05:46.734Z,1164
2017-10-27T07:06:46.771Z,1092
2017-10-27T07:07:46.668Z,1248
2017-10-27T07:08:46.681Z,1312
2017-10-27T07:09:46.381Z,1084
2017-10-27T07:10:46.645Z,1192
2017-10-27T07:11:46.884Z,1164
2017-10-27T07:12:46.275Z,1232
2017-10-27T07:13:46.617Z,980
2017-10-27T07:14:46.587Z,912
2017-10-27T07:15:46.576Z,976
2017-10-27T07:16:46.566Z,928
2017-10-27T07:17:46.552Z,988
2017-10-27T07:18:46.906Z,836
2017-10-27T07:19:46.189Z,900
2017-10-27T07:20:46.528Z,880
2017-10-27T07:21:46.555Z,1012
2017-10-27T07:22:46.846Z,744
2017-10-27T07:23:46.148Z,1136
2017-10-27T07:24:46.492Z,1076
2017-10-27T07:25:47.140Z,924
2017-10-27T07:26:46.449Z,940
2017-10-27T07:27:46.436Z,1360
2017-10-27T07:28:46.763Z,1492
2017-10-27T07:29:46.413Z,1924
2017-10-27T07:30:46.402Z,2192
2017-10-27T07:31:46.415Z,2048
2017-10-27T07:32:46.040Z,1828
2017-10-27T07:33:46.722Z,1424
2017-10-27T07:34:46.358Z,1704
2017-10-27T07:35:46.731Z,2048
2017-10-27T07:36:46.682Z,2088
2017-10-27T07:37:46.322Z,2208
2017-10-27T07:38:45.984Z,1992
2017-10-27T07:39:46.306Z,1672
2017-10-27T07:40:46.659Z,1820
2017-10-27T07:41:45.936Z,1808
2017-10-27T07:42:46.235Z,2672
2017-10-27T07:43:46.590Z,2328
2017-10-27T07:44:46.420Z,2080
2017-10-27T07:45:46.625Z,1900
2017-10-27T07:46:46.511Z,1380
2017-10-27T07:47:45.891Z,1528
2017-10-27T07:48:46.627Z,1328
2017-10-27T07:49:46.528Z,796
2017-10-27T07:50:45.832Z,652
2017-10-27T07:51:46.164Z,900
2017-10-27T07:52:45.837Z,1068
2017-10-27T07:53:46.149Z,976
2017-10-27T07:54:46.847Z,752
2017-10-27T07:55:45.788Z,904
2017-10-27T07:56:46.158Z,980
2017-10-27T07:57:46.427Z,1072
2017-10-27T07:58:46.078Z,1016
2017-10-27T07:59:46.435Z,1172
2017-10-27T08:00:46.743Z,1108
2017-10-27T08:01:46.561Z,2380
2017-10-27T08:02:45.691Z,1832
2017-10-27T08:03:46.368Z,1584
2017-10-27T08:04:46.368Z,1464
2017-10-27T08:05:46.336Z,1924
2017-10-27T08:06:45.983Z,1900
2017-10-27T08:07:45.991Z,1992
2017-10-27T08:08:45.624Z,2588
2017-10-27T08:09:45.979Z,3284
2017-10-27T08:10:46.278Z,3136
2017-10-27T08:11:45.936Z,2056
2017-10-27T08:12:45.913Z,2696
2017-10-27T08:13:45.578Z,3464
2017-10-27T08:14:45.889Z,2644
2017-10-27T08:15:46.222Z,4592
2017-10-27T08:16:45.892Z,3400
2017-10-27T08:17:45.548Z,3612
2017-10-27T08:18:46.532Z,3880
2017-10-27T08:19:46.533Z,2912
2017-10-27T08:20:45.489Z,2332
2017-10-27T08:21:45.469Z,2536
2017-10-27T08:22:45.811Z,3536
2017-10-27T08:23:46.144Z,3876
2017-10-27T08:24:45.777Z,3404
2017-10-27T08:25:45.434Z,4860
2017-10-27T08:26:46.098Z,4328
2017-10-27T08:27:45.746Z,4668
2017-10-27T08:28:45.753Z,4596
2017-10-27T08:29:45.390Z,5836
2017-10-27T08:30:45.735Z,5608
2017-10-27T08:31:45.696Z,4084
2017-10-27T08:32:45.691Z,5492
2017-10-27T08:33:45.681Z,5428
2017-10-27T08:34:45.998Z,5304
2017-10-27T08:35:45.657Z,5756
2017-10-27T08:36:46.319Z,3764
2017-10-27T08:37:45.993Z,3620
2017-10-27T08:38:45.617Z,4020
2017-10-27T08:39:45.613Z,4304
2017-10-27T08:40:45.601Z,2900
2017-10-27T08:41:45.938Z,2376
2017-10-27T08:42:45.920Z,3172
2017-10-27T08:43:45.566Z,3992
2017-10-27T08:44:45.207Z,4064
2017-10-27T08:45:45.875Z,3952
2017-10-27T08:46:45.207Z,3504
2017-10-27T08:47:45.174Z,3564
2017-10-27T08:48:45.510Z,3812
2017-10-27T08:49:45.830Z,4576
2017-10-27T08:50:45.835Z,4560
2017-10-27T08:51:45.805Z,4368
2017-10-27T08:52:45.793Z,3596
2017-10-27T08:53:45.788Z,3096
2017-10-27T08:54:45.092Z,3752
2017-10-27T08:55:45.111Z,5612
2017-10-27T08:56:45.414Z,4068
2017-10-27T08:57:45.738Z,7984
2017-10-27T08:58:45.728Z,7720
2017-10-27T08:59:45.378Z,8776
2017-10-27T09:00:45.371Z,9276
2017-10-27T09:01:45.371Z,8764
2017-10-27T09:02:45.006Z,6116
2017-10-27T09:03:45.014Z,5940
2017-10-27T09:04:45.336Z,4656
2017-10-27T09:05:45.660Z,4540
2017-10-27T09:06:45.300Z,6712
2017-10-27T09:07:45.285Z,6648
2017-10-27T09:08:45.287Z,3836
2017-10-27T09:09:45.267Z,3692
2017-10-27T09:10:45.633Z,4300
2017-10-27T09:11:45.579Z,4872
2017-10-27T09:12:45.916Z,4488
2017-10-27T09:13:45.235Z,5716
2017-10-27T09:14:45.552Z,5752
2017-10-27T09:15:44.853Z,6380
2017-10-27T09:16:45.183Z,5120
2017-10-27T09:17:45.178Z,4444
2017-10-27T09:18:44.820Z,3472
2017-10-27T09:19:44.822Z,2780
2017-10-27T09:20:45.143Z,3556
2017-10-27T09:21:45.127Z,3432
2017-10-27T09:22:45.127Z,4844
2017-10-27T09:23:45.123Z,4548
2017-10-27T09:24:45.098Z,4952
2017-10-27T09:25:45.082Z,4540
2017-10-27T09:26:45.071Z,5888
2017-10-27T09:27:44.748Z,3692
2017-10-27T09:28:45.390Z,4008
2017-10-27T09:29:44.699Z,5356
2017-10-27T09:30:45.031Z,6492
2017-10-27T09:31:45.036Z,6036
2017-10-27T09:32:45.371Z,5044
2017-10-27T09:33:45.360Z,4276
2017-10-27T09:34:45.321Z,3320
2017-10-27T09:35:45.341Z,3092
2017-10-27T09:36:44.630Z,2044
2017-10-27T09:37:44.946Z,1848
2017-10-27T09:38:45.284Z,2408
2017-10-27T09:39:45.258Z,2444
2017-10-27T09:40:45.260Z,2268
2017-10-27T09:41:44.560Z,2160
2017-10-27T09:42:45.249Z,1968
2017-10-27T09:43:45.212Z,2256
2017-10-27T09:44:45.201Z,3392
2017-10-27T09:45:45.202Z,6768
2017-10-27T09:46:44.500Z,6560
2017-10-27T09:47:44.827Z,5388
2017-10-27T09:48:44.838Z,4388
2017-10-27T09:49:45.207Z,3692
2017-10-27T09:50:44.467Z,3204
2017-10-27T09:51:44.441Z,2844
2017-10-27T09:52:44.428Z,2444
2017-10-27T09:53:44.761Z,2112
2017-10-27T09:54:44.403Z,1880
2017-10-27T09:55:44.391Z,1984
2017-10-27T09:56:44.719Z,2268
2017-10-27T09:57:45.080Z,2760
2017-10-27T09:58:44.702Z,2972
2017-10-27T09:59:45.024Z,2400
2017-10-27T10:00:45.013Z,2380
2017-10-27T10:01:44.679Z,2096
2017-10-27T10:02:44.652Z,2988
2017-10-27T10:03:44.639Z,5716
2017-10-27T10:04:44.643Z,10840
2017-10-27T10:05:44.278Z,7896
2017-10-27T10:06:44.602Z,7644
2017-10-27T10:07:44.941Z,6924
2017-10-27T10:08:44.239Z,6964
2017-10-27T10:09:44.231Z,6032
2017-10-27T10:10:44.907Z,7668
2017-10-27T10:11:44.208Z,7756
2017-10-27T10:12:44.874Z,7160
2017-10-27T10:13:44.563Z,7128
2017-10-27T10:14:44.511Z,7852
2017-10-27T10:15:44.527Z,7612
2017-10-27T10:16:44.147Z,7700
2017-10-27T10:17:44.136Z,8016
2017-10-27T10:18:44.531Z,8636
2017-10-27T10:19:44.454Z,8516
2017-10-27T10:20:44.103Z,7628
2017-10-27T10:21:44.473Z,7496
2017-10-27T10:22:44.427Z,7700
2017-10-27T10:23:44.763Z,6188
2017-10-27T10:24:44.406Z,4288
2017-10-27T10:25:44.058Z,4040
2017-10-27T10:26:44.731Z,5248
2017-10-27T10:27:44.037Z,6156
2017-10-27T10:28:44.369Z,6048
2017-10-27T10:29:44.359Z,6724
2017-10-27T10:30:44.347Z,6360
2017-10-27T10:31:44.719Z,6972
2017-10-27T10:32:44.334Z,7244
2017-10-27T10:33:44.710Z,8048
2017-10-27T10:34:44.302Z,7756
2017-10-27T10:35:44.650Z,7164
2017-10-27T10:36:43.940Z,6916
2017-10-27T10:37:44.272Z,7228
2017-10-27T10:38:44.273Z,6400
2017-10-27T10:39:44.630Z,3868
2017-10-27T10:40:44.585Z,3972
2017-10-27T10:41:44.598Z,4816
2017-10-27T10:42:44.245Z,4400
2017-10-27T10:43:44.209Z,4768
2017-10-27T10:44:44.210Z,6656
2017-10-27T10:45:43.844Z,7912
2017-10-27T10:46:44.518Z,8892
2017-10-27T10:47:44.529Z,9000
2017-10-27T10:48:44.177Z,7548
2017-10-27T10:49:44.501Z,7896
2017-10-27T10:50:44.151Z,9820
2017-10-27T10:51:44.122Z,12076
2017-10-27T10:52:44.455Z,7616
2017-10-27T10:53:43.774Z,4852
2017-10-27T10:54:44.094Z,5312
2017-10-27T10:55:44.091Z,4244
2017-10-27T10:56:43.759Z,3564
2017-10-27T10:57:43.714Z,4124
2017-10-27T10:58:43.725Z,3764
2017-10-27T10:59:43.697Z,2992
2017-10-27T11:00:44.028Z,3440
2017-10-27T11:01:43.692Z,2692
2017-10-27T11:02:44.348Z,2412
2017-10-27T11:03:43.655Z,3896
2017-10-27T11:04:43.986Z,3468
2017-10-27T11:05:43.637Z,5852
2017-10-27T11:06:44.326Z,6696
2017-10-27T11:07:44.296Z,6816
2017-10-27T11:08:43.962Z,5912
2017-10-27T11:09:43.592Z,6312
2017-10-27T11:10:44.261Z,7352
2017-10-27T11:11:44.255Z,7648
2017-10-27T11:12:44.249Z,7104
2017-10-27T11:13:43.889Z,6188
2017-10-27T11:14:43.887Z,6496
2017-10-27T11:15:43.527Z,6508
2017-10-27T11:16:43.517Z,6560
2017-10-27T11:17:43.514Z,6608
2017-10-27T11:18:43.886Z,5620
2017-10-27T11:19:44.187Z,4556
2017-10-27T11:20:43.471Z,4264
2017-10-27T11:21:43.813Z,4320
2017-10-27T11:22:43.840Z,5056
2017-10-27T11:23:43.805Z,4436
2017-10-27T11:24:43.457Z,2800
2017-10-27T11:25:43.778Z,4144
2017-10-27T11:26:44.100Z,4492
2017-10-27T11:27:43.745Z,3496
2017-10-27T11:28:44.074Z,4448
2017-10-27T11:29:43.718Z,6012
2017-10-27T11:30:43.756Z,7232
2017-10-27T11:31:43.716Z,5704
2017-10-27T11:32:43.348Z,5388
2017-10-27T11:33:43.360Z,9368
2017-10-27T11:34:43.668Z,7196
2017-10-27T11:35:44.005Z,7252
2017-10-27T11:36:43.647Z,7632
2017-10-27T11:37:43.303Z,3936
2017-10-27T11:38:43.631Z,3472
2017-10-27T11:39:43.277Z,3672
2017-10-27T11:40:43.605Z,3992
2017-10-27T11:41:43.267Z,5096
2017-10-27T11:42:43.935Z,5380
2017-10-27T11:43:44.256Z,4316
2017-10-27T11:44:43.578Z,3808
2017-10-27T11:45:43.559Z,4648
2017-10-27T11:46:43.540Z,5528
2017-10-27T11:47:43.896Z,7188
2017-10-27T11:48:43.521Z,7564
2017-10-27T11:49:43.516Z,7328
2017-10-27T11:50:43.502Z,6628
2017-10-27T11:51:43.510Z,7552
2017-10-27T11:52:44.164Z,6620
2017-10-27T11:53:43.475Z,4896
2017-10-27T11:54:43.798Z,4876
2017-10-27T11:55:44.078Z,5012
2017-10-27T11:56:43.444Z,5304
2017-10-27T11:57:43.443Z,4568
2017-10-27T11:58:43.765Z,5288
2017-10-27T11:59:43.765Z,6608
2017-10-27T12:00:43.074Z,6952
2017-10-27T12:01:43.404Z,7064
2017-10-27T12:02:43.714Z,6380
2017-10-27T12:03:43.384Z,5064
2017-10-27T12:04:43.713Z,5084
2017-10-27T12:05:43.341Z,4656
2017-10-27T12:06:43.340Z,3700
2017-10-27T12:07:43.352Z,4128
2017-10-27T12:08:43.307Z,4576
2017-10-27T12:09:42.956Z,4956
2017-10-27T12:10:43.287Z,5696
2017-10-27T12:11:42.938Z,5384
2017-10-27T12:12:42.926Z,4188
2017-10-27T12:13:42.929Z,4844
2017-10-27T12:14:43.247Z,6956
2017-10-27T12:15:43.246Z,8648
2017-10-27T12:16:43.594Z,7932
2017-10-27T12:17:42.871Z,7788
2017-10-27T12:18:42.878Z,7188
2017-10-27T12:19:43.558Z,6352
2017-10-27T12:20:43.522Z,5380
2017-10-27T12:21:42.830Z,4816
2017-10-27T12:22:43.159Z,5916
2017-10-27T12:23:42.808Z,7364
2017-10-27T12:24:42.798Z,4980
2017-10-27T12:25:43.491Z,2364
2017-10-27T12:26:43.821Z,1972
2017-10-27T12:27:43.798Z,2544
2017-10-27T12:28:43.432Z,2160
2017-10-27T12:29:42.741Z,1548
2017-10-27T12:30:43.087Z,1044
2017-10-27T12:31:42.722Z,888
2017-10-27T12:32:43.050Z,1172
2017-10-27T12:33:43.039Z,2076
2017-10-27T12:34:43.384Z,3312
2017-10-27T12:35:42.677Z,5992
2017-10-27T12:36:43.006Z,7012
2017-10-27T12:37:42.656Z,7012
2017-10-27T12:38:42.652Z,7732
2017-10-27T12:39:42.986Z,7712
2017-10-27T12:40:43.308Z,7292
2017-10-27T12:41:42.959Z,6464
2017-10-27T12:42:42.952Z,6440
2017-10-27T12:43:42.933Z,6400
2017-10-27T12:44:42.917Z,4884
2017-10-27T12:45:42.913Z,3652
2017-10-27T12:46:42.557Z,3368
2017-10-27T12:47:42.910Z,3532
2017-10-27T12:48:42.555Z,3864
2017-10-27T12:49:42.527Z,5252
2017-10-27T12:50:42.873Z,5316
2017-10-27T12:51:42.878Z,4488
2017-10-27T12:52:43.602Z,4980
2017-10-27T12:53:42.834Z,4476
2017-10-27T12:54:43.148Z,4436
2017-10-27T12:55:43.480Z,4420
2017-10-27T12:56:42.789Z,5020
2017-10-27T12:57:42.439Z,5276
2017-10-27T12:58:42.424Z,4392
2017-10-27T12:59:43.099Z,3624
2017-10-27T13:00:43.085Z,3840
2017-10-27T13:01:42.735Z,3736
2017-10-27T13:02:43.057Z,3072
2017-10-27T13:03:42.716Z,2476
2017-10-27T13:04:42.698Z,1980
2017-10-27T13:05:42.346Z,1556
2017-10-27T13:06:42.358Z,1628
2017-10-27T13:07:42.685Z,1504
2017-10-27T13:08:42.670Z,908
2017-10-27T13:09:42.983Z,780
2017-10-27T13:10:42.632Z,712
2017-10-27T13:11:42.284Z,716
2017-10-27T13:12:42.632Z,1036
2017-10-27T13:13:43.296Z,1272
2017-10-27T13:14:42.942Z,1444
2017-10-27T13:15:42.916Z,1484
2017-10-27T13:16:42.222Z,1568
2017-10-27T13:17:42.890Z,2560
2017-10-27T13:18:42.539Z,3740
2017-10-27T13:19:42.200Z,4048
2017-10-27T13:20:42.517Z,4568
2017-10-27T13:21:42.525Z,3784
2017-10-27T13:22:42.493Z,3080
2017-10-27T13:23:42.484Z,3056
2017-10-27T13:24:42.511Z,2800
2017-10-27T13:25:42.470Z,4228
2017-10-27T13:26:42.444Z,4924
2017-10-27T13:27:42.778Z,3672
2017-10-27T13:28:42.786Z,3592
2017-10-27T13:29:42.751Z,3672
2017-10-27T13:30:43.082Z,3764
2017-10-27T13:31:42.049Z,4384
2017-10-27T13:32:42.039Z,5120
2017-10-27T13:33:42.030Z,5364
2017-10-27T13:34:42.012Z,4684
2017-10-27T13:35:42.342Z,4840
2017-10-27T13:36:41.998Z,3740
2017-10-27T13:37:42.339Z,2892
2017-10-27T13:38:42.653Z,2808
2017-10-27T13:39:42.331Z,2616
2017-10-27T13:40:42.287Z,2756
2017-10-27T13:41:42.611Z,3364
2017-10-27T13:42:41.920Z,3572
2017-10-27T13:43:42.255Z,3284
2017-10-27T13:44:42.595Z,3060
2017-10-27T13:45:41.913Z,2520
2017-10-27T13:46:42.565Z,1888
2017-10-27T13:47:42.209Z,1476
2017-10-27T13:48:41.871Z,1376
2017-10-27T13:49:41.840Z,1204
2017-10-27T13:50:42.176Z,1388
2017-10-27T13:51:42.161Z,2128
2017-10-27T13:52:42.524Z,2188
2017-10-27T13:53:41.817Z,2112
2017-10-27T13:54:42.124Z,1924
2017-10-27T13:55:43.000Z,2676
2017-10-27T13:56:42.124Z,3152